G1 CYXU-CYXU
Flight info
| Callsign | G1 |
|---|---|
| Flight time | N/A |
| Altitude | 3000 |
| Route | VFR SOUTHBOUND |
| Aircraft | F35 |
Departure
| Time | 2026-05-08 00:26 |
|---|---|
| Airport | London International Airport (CYXU) |
Arrival
| Time | N/A |
|---|---|
| Airport | London International Airport (CYXU) |
| Time | Latitude | Longitude | Altitude | Speed | Heading |
|---|---|---|---|---|---|
| 2026-05-08 00:20 | 43.03565 | -81.16275 | 907 ft | 0 kts | 73° |
| 2026-05-08 00:22 | 43.03578 | -81.16211 | 906 ft | 10 kts | 57° |
| 2026-05-08 00:22 | 43.03621 | -81.16120 | 904 ft | 13 kts | 55° |
| 2026-05-08 00:23 | 43.03666 | -81.16002 | 904 ft | 15 kts | 73° |
| 2026-05-08 00:23 | 43.03674 | -81.15908 | 903 ft | 8 kts | 89° |
| 2026-05-08 00:23 | 43.03690 | -81.15827 | 901 ft | 11 kts | 79° |
| 2026-05-08 00:23 | 43.03701 | -81.15710 | 900 ft | 13 kts | 93° |
| 2026-05-08 00:24 | 43.03642 | -81.15617 | 901 ft | 33 kts | 139° |
| 2026-05-08 00:24 | 43.03325 | -81.15233 | 903 ft | 66 kts | 139° |
| 2026-05-08 00:24 | 43.02998 | -81.14841 | 897 ft | 44 kts | 139° |
| 2026-05-08 00:24 | 43.02770 | -81.14571 | 899 ft | 44 kts | 139° |
| 2026-05-08 00:25 | 43.02550 | -81.14302 | 899 ft | 41 kts | 136° |
| 2026-05-08 00:25 | 43.02352 | -81.14073 | 896 ft | 31 kts | 138° |
| 2026-05-08 00:25 | 43.02329 | -81.13943 | 895 ft | 0 kts | 48° |
| 2026-05-08 00:25 | 43.02335 | -81.13934 | 895 ft | 4 kts | 46° |
| 2026-05-08 00:26 | 43.02417 | -81.13847 | 896 ft | 18 kts | 354° |
| 2026-05-08 00:26 | 43.02466 | -81.13894 | 896 ft | 45 kts | 319° |
| 2026-05-08 00:26 | 43.03214 | -81.14817 | 1460 ft | 221 kts | 316° |
| 2026-05-08 00:26 | 43.05047 | -81.15697 | 1884 ft | 318 kts | 35° |
| 2026-05-08 00:27 | 43.04944 | -81.13824 | 1909 ft | 275 kts | 135° |
| 2026-05-08 00:27 | 43.03512 | -81.11870 | 2112 ft | 297 kts | 137° |
| 2026-05-08 00:27 | 43.02001 | -81.09872 | 2298 ft | 308 kts | 136° |
| 2026-05-08 00:27 | 43.00303 | -81.08809 | 2220 ft | 255 kts | 238° |
| 2026-05-08 00:28 | 43.00179 | -81.10733 | 1967 ft | 183 kts | 298° |
| 2026-05-08 00:28 | 43.00916 | -81.11897 | 1446 ft | 133 kts | 314° |
| 2026-05-08 00:28 | 43.01610 | -81.12797 | 1171 ft | 143 kts | 317° |
| 2026-05-08 00:28 | 43.02382 | -81.13753 | 918 ft | 135 kts | 317° |
| 2026-05-08 00:29 | 43.03104 | -81.14645 | 1443 ft | 182 kts | 316° |
| 2026-05-08 00:29 | 43.04401 | -81.15920 | 1514 ft | 245 kts | 18° |
| 2026-05-08 00:29 | 43.05228 | -81.14395 | 1437 ft | 153 kts | 159° |
| 2026-05-08 00:29 | 43.04078 | -81.13322 | 1773 ft | 220 kts | 141° |
| 2026-05-08 00:30 | 43.02997 | -81.12093 | 1905 ft | 183 kts | 141° |
| 2026-05-08 00:30 | 43.01734 | -81.11750 | 1689 ft | 220 kts | 235° |
| 2026-05-08 00:30 | 43.02244 | -81.13599 | 1013 ft | 222 kts | 318° |
| 2026-05-08 00:30 | 43.03337 | -81.14921 | 1304 ft | 178 kts | 321° |
| 2026-05-08 00:31 | 43.04715 | -81.17427 | 2010 ft | 502 kts | 236° |
| 2026-05-08 00:31 | 43.01022 | -81.19409 | 1535 ft | 534 kts | 183° |
| 2026-05-08 00:31 | 42.98598 | -81.19030 | 1751 ft | 317 kts | 160° |
| 2026-05-08 00:31 | 42.96650 | -81.18026 | 1867 ft | 284 kts | 160° |
| 2026-05-08 00:32 | 42.94892 | -81.17060 | 1737 ft | 262 kts | 158° |
| 2026-05-08 00:32 | 42.93278 | -81.16091 | 1469 ft | 247 kts | 155° |
| 2026-05-08 00:32 | 42.91726 | -81.15062 | 1415 ft | 302 kts | 156° |
| 2026-05-08 00:32 | 42.89341 | -81.13689 | 3693 ft | 450 kts | 160° |
| 2026-05-08 00:33 | 42.86314 | -81.10709 | 7223 ft | 581 kts | 120° |
| 2026-05-08 00:33 | 42.87201 | -81.06037 | 8166 ft | 603 kts | 47° |
| 2026-05-08 00:33 | 42.89875 | -81.01668 | 8213 ft | 597 kts | 47° |
| 2026-05-08 00:33 | 42.92532 | -80.97333 | 8173 ft | 595 kts | 48° |
| 2026-05-08 00:34 | 42.95500 | -80.94032 | 8573 ft | 570 kts | 344° |
| 2026-05-08 00:34 | 42.99609 | -80.95901 | 10266 ft | 555 kts | 338° |
| 2026-05-08 00:34 | 43.02864 | -80.97464 | 12849 ft | 472 kts | 337° |
| 2026-05-08 00:34 | 43.05891 | -80.98889 | 12911 ft | 451 kts | 337° |
| 2026-05-08 00:35 | 43.08616 | -81.00156 | 12916 ft | 408 kts | 338° |
| 2026-05-08 00:35 | 43.11174 | -81.01322 | 11199 ft | 386 kts | 337° |
| 2026-05-08 00:35 | 43.13890 | -81.02612 | 6121 ft | 435 kts | 338° |
| 2026-05-08 00:35 | 43.16878 | -81.04138 | 1948 ft | 475 kts | 337° |
| 2026-05-08 00:36 | 43.19739 | -81.05689 | 1836 ft | 410 kts | 337° |
| 2026-05-08 00:36 | 43.22230 | -81.07039 | 1850 ft | 363 kts | 337° |
| 2026-05-08 00:36 | 43.24450 | -81.08248 | 1839 ft | 325 kts | 336° |
| 2026-05-08 00:36 | 43.26452 | -81.09335 | 1795 ft | 294 kts | 336° |
| 2026-05-08 00:37 | 43.28256 | -81.10317 | 1774 ft | 264 kts | 336° |
| 2026-05-08 00:37 | 43.29877 | -81.11192 | 1751 ft | 236 kts | 336° |
| 2026-05-08 00:37 | 43.31300 | -81.11947 | 1745 ft | 208 kts | 336° |
| 2026-05-08 00:38 | 43.33702 | -81.13188 | 1871 ft | 202 kts | 337° |
| 2026-05-08 00:38 | 43.35232 | -81.13992 | 2115 ft | 288 kts | 338° |
| 2026-05-08 00:38 | 43.42384 | -81.19465 | 3935 ft | 435 kts | 324° |
| 2026-05-08 00:38 | 43.55696 | -81.31756 | 3982 ft | 557 kts | 325° |
| 2026-05-08 00:39 | 44.08016 | -81.80254 | 3920 ft | 566 kts | 325° |
| 2026-05-08 00:39 | 44.46376 | -82.16437 | 3914 ft | 567 kts | 325° |
| 2026-05-08 00:39 | 44.49647 | -82.19542 | 3915 ft | 567 kts | 325° |
| 2026-05-08 00:39 | 44.52915 | -82.22650 | 3918 ft | 567 kts | 325° |
| 2026-05-08 00:40 | 44.56166 | -82.25753 | 3920 ft | 567 kts | 324° |
| 2026-05-08 00:40 | 44.76094 | -82.02341 | 5222 ft | 986 kts | 42° |
| 2026-05-08 00:40 | 45.40034 | -81.16606 | 5552 ft | 636 kts | 43° |
| 2026-05-08 00:40 | 45.89968 | -80.44728 | 5291 ft | 636 kts | 44° |
| 2026-05-08 00:41 | 46.39931 | -79.71841 | 5271 ft | 638 kts | 44° |
| 2026-05-08 00:41 | 46.89732 | -78.98786 | 5259 ft | 637 kts | 44° |
| 2026-05-08 00:41 | 47.39785 | -78.25132 | 5241 ft | 637 kts | 44° |
| 2026-05-08 00:41 | 47.79861 | -77.43877 | 20467 ft | 611 kts | 57° |
| 2026-05-08 00:42 | 48.15198 | -76.59470 | 20816 ft | 614 kts | 56° |
| 2026-05-08 00:42 | 48.51570 | -75.72553 | 20787 ft | 614 kts | 56° |
| 2026-05-08 00:42 | 48.87946 | -74.85063 | 20779 ft | 614 kts | 56° |
| 2026-05-08 00:42 | 49.12026 | -74.26904 | 20790 ft | 613 kts | 56° |
| 2026-05-08 00:43 | 49.72042 | -72.84526 | 20752 ft | 1025 kts | 56° |
| 2026-05-08 00:43 | 50.37542 | -71.28492 | 20721 ft | 1307 kts | 56° |
| 2026-05-08 00:43 | 50.98077 | -69.83402 | 20717 ft | 943 kts | 56° |
| 2026-05-08 00:43 | 51.42933 | -68.75320 | 20680 ft | 563 kts | 56° |
| 2026-05-08 00:44 | 51.77583 | -67.91772 | 20660 ft | 563 kts | 57° |
| 2026-05-08 00:44 | 52.12395 | -67.07525 | 20644 ft | 561 kts | 57° |
| 2026-05-08 00:44 | 52.47452 | -66.22877 | 20614 ft | 565 kts | 57° |
| 2026-05-08 00:44 | 52.83202 | -65.37428 | 20583 ft | 569 kts | 57° |
| 2026-05-08 00:45 | 53.35221 | -64.10333 | 20521 ft | 1014 kts | 57° |
| 2026-05-08 00:45 | 53.87657 | -62.81672 | 20486 ft | 722 kts | 57° |
| 2026-05-08 00:45 | 54.34707 | -61.69050 | 20447 ft | 598 kts | 57° |
| 2026-05-08 00:45 | 54.88611 | -60.39542 | 20377 ft | 1256 kts | 57° |
| 2026-05-08 00:46 | 55.67570 | -58.39689 | 20444 ft | 1237 kts | 57° |
| 2026-05-08 00:46 | 56.45805 | -56.36355 | 20558 ft | 1241 kts | 57° |
| 2026-05-08 00:46 | 56.76522 | -55.54282 | 20660 ft | 1238 kts | 57° |